Time;durP1;ratioP1;P1;durP2;ratioP2;P2;SDS_P1;SDS_P2;PMS_P1;PMS_P2;Temp;Humidity;BMP_temperature;BMP_pressure;BME280_temperature;BME280_humidity;BME280_pressure;Samples;Min_cycle;Max_cycle;Signal;HPM_P1;HPM_P2
2023/03/25 00:00:27;;;;;;;7.93;4.80;;;10.00;99.90;;;;;;5013349;28;20550;-71
2023/03/25 00:02:56;;;;;;;9.20;4.97;;;10.00;99.90;;;;;;5012298;28;20458;-71
2023/03/25 00:05:25;;;;;;;8.80;4.77;;;10.00;99.90;;;;;;5013374;28;20799;-71
2023/03/25 00:07:53;;;;;;;7.50;4.17;;;10.00;99.90;;;;;;5016929;28;20438;-71
2023/03/25 00:10:21;;;;;;;7.80;4.80;;;10.00;99.90;;;;;;4999740;28;20475;-72
2023/03/25 00:12:51;;;;;;;8.33;4.60;;;10.00;99.90;;;;;;5017385;28;20440;-72
2023/03/25 00:15:21;;;;;;;8.40;5.00;;;10.00;99.90;;;;;;4999869;28;20458;-72
2023/03/25 00:17:49;;;;;;;9.33;4.30;;;10.00;99.90;;;;;;5017702;28;20840;-72
2023/03/25 00:20:19;;;;;;;7.20;4.10;;;9.90;99.90;;;;;;5017073;28;20634;-71
2023/03/25 00:22:47;;;;;;;8.03;4.20;;;10.00;99.90;;;;;;5017134;28;20436;-71
2023/03/25 00:25:17;;;;;;;6.73;4.00;;;10.00;99.90;;;;;;5017092;28;20462;-72
2023/03/25 00:27:47;;;;;;;6.80;3.93;;;10.00;99.90;;;;;;4999480;28;20436;-72
2023/03/25 00:30:17;;;;;;;6.73;4.07;;;9.90;99.90;;;;;;4999526;28;20904;-71
2023/03/25 00:32:48;;;;;;;7.97;3.67;;;10.00;99.90;;;;;;5015706;28;20440;-71
2023/03/25 00:35:19;;;;;;;6.30;4.20;;;9.90;99.90;;;;;;4999294;28;20487;-71
2023/03/25 00:37:56;;;;;;;6.40;3.83;;;10.00;99.90;;;;;;4999253;28;20428;-71
2023/03/25 00:40:25;;;;;;;6.23;3.70;;;10.00;99.90;;;;;;4999187;28;20475;-71
2023/03/25 00:42:53;;;;;;;6.67;3.33;;;10.00;99.90;;;;;;5017117;28;20795;-71
2023/03/25 00:45:21;;;;;;;5.37;2.80;;;10.00;99.90;;;;;;5016717;28;20471;-71
2023/03/25 00:47:51;;;;;;;7.73;3.87;;;10.00;99.90;;;;;;4999077;28;20450;-71
2023/03/25 00:50:21;;;;;;;7.57;3.23;;;10.00;99.90;;;;;;4998946;28;20463;-71
2023/03/25 00:52:50;;;;;;;7.00;3.30;;;10.00;99.90;;;;;;4999052;28;20955;-71
2023/03/25 00:55:18;;;;;;;9.37;3.47;;;10.10;99.90;;;;;;5016472;28;20447;-71
2023/03/25 00:57:47;;;;;;;5.83;3.10;;;10.10;99.90;;;;;;4998729;28;20506;-71
2023/03/25 01:00:17;;;;;;;4.57;2.60;;;10.10;99.90;;;;;;5016314;28;20463;-71
2023/03/25 01:02:45;;;;;;;6.37;2.93;;;10.10;99.90;;;;;;5016007;28;20479;-71
2023/03/25 01:05:15;;;;;;;5.90;2.87;;;10.10;99.90;;;;;;4998816;28;20447;-71
2023/03/25 01:07:48;;;;;;;7.23;3.83;;;10.10;99.90;;;;;;4998701;28;20447;-71
2023/03/25 01:10:17;;;;;;;6.00;2.93;;;10.10;99.90;;;;;;4998654;28;20900;-71
2023/03/25 01:12:48;;;;;;;5.40;2.93;;;10.10;99.90;;;;;;5014929;28;20452;-71
2023/03/25 01:15:18;;;;;;;5.97;2.83;;;10.10;99.90;;;;;;5014999;28;20531;-71
2023/03/25 01:17:47;;;;;;;7.20;3.10;;;10.10;99.90;;;;;;5015916;28;20467;-71
2023/03/25 01:20:15;;;;;;;5.73;3.00;;;10.10;99.90;;;;;;5016054;28;21056;-72
2023/03/25 01:22:44;;;;;;;5.43;2.40;;;10.10;99.90;;;;;;4998633;28;20452;-72
2023/03/25 01:25:13;;;;;;;6.33;3.00;;;10.10;99.90;;;;;;5014826;28;20965;-72
2023/03/25 01:27:41;;;;;;;5.20;2.70;;;10.10;99.90;;;;;;5016226;28;20797;-72
2023/03/25 01:30:11;;;;;;;5.80;3.10;;;10.10;99.90;;;;;;5015915;28;20478;-71
2023/03/25 01:32:39;;;;;;;5.80;2.97;;;10.10;99.90;;;;;;4998341;28;20452;-71
2023/03/25 01:35:09;;;;;;;8.67;3.70;;;10.10;99.90;;;;;;4998043;28;20547;-71
2023/03/25 01:37:37;;;;;;;7.40;2.93;;;10.10;99.90;;;;;;5015648;28;20487;-71
2023/03/25 01:40:09;;;;;;;6.80;3.50;;;10.10;99.90;;;;;;4998005;28;20455;-71
2023/03/25 01:42:38;;;;;;;6.27;3.17;;;10.10;99.90;;;;;;5015671;28;20427;-71
2023/03/25 01:45:19;;;;;;;9.10;3.37;;;10.10;99.90;;;;;;5014570;28;20444;-71
2023/03/25 01:47:49;;;;;;;5.67;3.00;;;10.10;99.90;;;;;;4998035;28;20432;-72
2023/03/25 01:50:18;;;;;;;7.40;3.40;;;10.10;99.90;;;;;;5015511;28;20975;-72
2023/03/25 01:52:50;;;;;;;6.97;3.53;;;10.10;99.90;;;;;;5015729;28;20439;-72
2023/03/25 01:55:20;;;;;;;6.70;3.00;;;10.10;99.90;;;;;;5015719;28;20455;-72
2023/03/25 01:57:53;;;;;;;5.27;3.23;;;10.10;99.90;;;;;;5015285;28;20475;-71
2023/03/25 02:00:21;;;;;;;5.70;4.00;;;10.10;99.90;;;;;;5014103;28;20502;-71
2023/03/25 02:02:51;;;;;;;7.20;3.60;;;10.00;99.90;;;;;;5015582;28;20518;-71
2023/03/25 02:05:24;;;;;;;5.50;3.43;;;10.00;99.90;;;;;;5015502;28;20440;-71
2023/03/25 02:07:56;;;;;;;8.30;3.83;;;10.00;99.90;;;;;;5016122;28;20424;-71
2023/03/25 02:10:24;;;;;;;5.57;3.10;;;10.00;99.90;;;;;;5002727;28;20468;-71
2023/03/25 02:12:54;;;;;;;8.77;3.80;;;10.00;99.90;;;;;;5016493;28;20451;-71
2023/03/25 02:15:22;;;;;;;6.33;3.10;;;10.00;99.90;;;;;;4998079;28;20440;-71
2023/03/25 02:18:16;;;;;;;5.60;3.77;;;10.00;99.90;;;;;;4997642;28;20467;-71
2023/03/25 02:21:30;;;;;;;5.17;3.43;;;10.00;99.90;;;;;;4997515;28;20615;-72
2023/03/25 02:24:34;;;;;;;6.43;4.00;;;10.00;99.90;;;;;;4955303;28;20849;-71
2023/03/25 02:27:25;;;;;;;7.23;3.90;;;10.00;99.90;;;;;;4917823;28;20467;-71
2023/03/25 02:30:42;;;;;;;6.10;4.03;;;10.00;99.90;;;;;;5012832;28;20448;-71
2023/03/25 02:33:45;;;;;;;8.00;4.10;;;10.00;99.90;;;;;;4954404;29;20461;-71
2023/03/25 02:36:40;;;;;;;6.03;3.87;;;10.00;99.90;;;;;;5014676;28;20455;-71
2023/03/25 02:39:14;;;;;;;7.00;4.47;;;10.00;99.90;;;;;;5013440;28;20478;-71
2023/03/25 02:41:51;;;;;;;6.00;3.90;;;10.00;99.90;;;;;;4997038;28;20582;-71
2023/03/25 02:44:27;;;;;;;7.00;4.40;;;10.00;99.90;;;;;;5013390;28;20510;-71
2023/03/25 02:47:00;;;;;;;7.27;3.80;;;10.00;99.90;;;;;;4997195;28;20960;-71
2023/03/25 02:49:32;;;;;;;4.80;3.70;;;10.00;99.90;;;;;;4997402;28;20554;-72
2023/03/25 02:52:07;;;;;;;6.70;3.27;;;10.00;99.90;;;;;;4996887;28;20474;-72
2023/03/25 02:54:40;;;;;;;7.27;3.93;;;10.00;99.90;;;;;;5013122;28;20467;-71
2023/03/25 02:57:13;;;;;;;8.80;3.80;;;10.00;99.90;;;;;;5013114;28;20472;-71
2023/03/25 02:59:42;;;;;;;5.43;3.30;;;10.00;99.90;;;;;;5013048;28;20440;-71
2023/03/25 03:02:11;;;;;;;5.30;3.50;;;10.00;99.90;;;;;;5013012;28;20522;-71
2023/03/25 03:04:48;;;;;;;6.90;3.53;;;10.00;99.90;;;;;;4996545;28;20444;-71
2023/03/25 03:07:24;;;;;;;6.57;4.00;;;10.00;99.90;;;;;;4996760;28;20452;-71
2023/03/25 03:10:00;;;;;;;8.40;4.03;;;9.90;99.90;;;;;;4996702;28;20447;-71
2023/03/25 03:12:40;;;;;;;5.30;3.60;;;9.90;99.90;;;;;;4996608;28;20447;-71
2023/03/25 03:15:24;;;;;;;6.77;3.73;;;9.90;99.90;;;;;;5014308;28;20432;-71
2023/03/25 03:18:05;;;;;;;6.73;3.87;;;9.90;99.90;;;;;;5013948;28;20992;-71
2023/03/25 03:20:40;;;;;;;8.33;4.10;;;9.90;99.90;;;;;;4996258;28;20478;-71
2023/03/25 03:23:13;;;;;;;7.97;3.73;;;9.80;99.90;;;;;;5014559;28;20431;-71
2023/03/25 03:25:48;;;;;;;7.17;3.60;;;9.90;99.90;;;;;;5013872;28;20882;-71
2023/03/25 03:28:27;;;;;;;7.57;3.63;;;9.80;99.90;;;;;;5014136;28;20474;-71
2023/03/25 03:31:05;;;;;;;6.77;3.83;;;9.80;99.90;;;;;;5013980;28;20451;-71
2023/03/25 03:33:37;;;;;;;7.30;3.77;;;9.80;99.90;;;;;;4996207;28;20455;-71
2023/03/25 03:36:09;;;;;;;8.80;4.33;;;9.80;99.90;;;;;;5012357;28;20464;-71
2023/03/25 03:38:41;;;;;;;7.10;3.83;;;9.80;99.90;;;;;;5012398;28;20472;-71
2023/03/25 03:41:13;;;;;;;6.57;4.03;;;9.80;99.90;;;;;;5012835;28;20547;-71
2023/03/25 03:43:46;;;;;;;6.73;3.40;;;9.80;99.90;;;;;;5012502;28;20444;-71
2023/03/25 03:46:19;;;;;;;6.83;4.30;;;9.80;99.90;;;;;;5013926;28;20431;-71
2023/03/25 03:48:52;;;;;;;6.40;3.83;;;9.80;99.90;;;;;;4996067;28;20520;-71
2023/03/25 03:51:24;;;;;;;8.13;4.47;;;9.80;99.90;;;;;;5013588;28;20514;-71
2023/03/25 03:53:57;;;;;;;8.33;4.40;;;9.80;99.90;;;;;;5012396;28;20447;-71
2023/03/25 03:56:35;;;;;;;8.50;4.27;;;9.80;99.90;;;;;;5013581;28;20420;-71
2023/03/25 03:59:08;;;;;;;9.13;4.10;;;9.80;99.90;;;;;;5013655;28;20948;-71
2023/03/25 04:01:44;;;;;;;7.50;4.47;;;9.80;99.90;;;;;;5013498;28;20455;-72
2023/03/25 04:04:15;;;;;;;8.50;4.40;;;9.80;99.90;;;;;;5013454;28;20975;-72
2023/03/25 04:06:47;;;;;;;9.77;5.10;;;9.80;99.90;;;;;;4995891;28;20443;-71
2023/03/25 04:09:25;;;;;;;6.47;4.30;;;9.80;99.90;;;;;;5013883;28;20455;-71
2023/03/25 04:11:59;;;;;;;9.30;5.20;;;9.80;99.90;;;;;;5013583;28;20462;-71
2023/03/25 04:14:27;;;;;;;6.97;4.60;;;9.70;99.90;;;;;;5012036;28;21011;-71
2023/03/25 04:16:56;;;;;;;7.87;4.67;;;9.70;99.90;;;;;;4995631;28;20861;-71
2023/03/25 04:19:24;;;;;;;5.73;4.50;;;9.70;99.90;;;;;;4995510;28;20849;-71
2023/03/25 04:21:53;;;;;;;7.40;5.03;;;9.70;99.90;;;;;;5012169;28;20558;-71
2023/03/25 04:24:22;;;;;;;9.83;5.17;;;9.60;99.90;;;;;;5013366;28;20459;-71
2023/03/25 04:26:51;;;;;;;10.10;5.50;;;9.60;99.90;;;;;;5013479;28;20811;-72
2023/03/25 04:29:21;;;;;;;10.57;5.87;;;9.60;99.90;;;;;;5013135;28;20519;-72
2023/03/25 04:31:49;;;;;;;9.50;5.40;;;9.60;99.90;;;;;;4995453;28;20486;-72
2023/03/25 04:34:19;;;;;;;10.20;5.50;;;9.50;99.90;;;;;;4995398;28;20888;-72
2023/03/25 04:36:49;;;;;;;9.23;5.73;;;9.50;99.90;;;;;;5013396;28;20526;-71
2023/03/25 04:39:21;;;;;;;7.57;5.33;;;9.50;99.90;;;;;;5013574;28;20895;-72
2023/03/25 04:41:49;;;;;;;10.53;5.80;;;9.50;99.90;;;;;;5013028;28;20514;-71
2023/03/25 04:44:19;;;;;;;8.57;5.40;;;9.50;99.90;;;;;;5013107;28;20455;-71
2023/03/25 04:46:49;;;;;;;6.93;4.77;;;9.50;99.90;;;;;;5011797;28;20441;-72
2023/03/25 04:49:20;;;;;;;6.93;4.90;;;9.50;99.90;;;;;;5013250;28;20447;-72
2023/03/25 04:51:50;;;;;;;9.67;5.57;;;9.50;99.90;;;;;;5013044;28;20554;-72
2023/03/25 04:54:18;;;;;;;8.90;5.40;;;9.50;99.90;;;;;;5016553;28;21024;-72
2023/03/25 04:56:48;;;;;;;8.50;5.27;;;9.50;99.90;;;;;;5016564;28;20956;-72
2023/03/25 04:59:17;;;;;;;6.40;5.13;;;9.50;99.90;;;;;;5016382;28;21030;-72
2023/03/25 05:01:45;;;;;;;11.77;5.57;;;9.50;99.90;;;;;;5016920;28;20509;-72
2023/03/25 05:04:16;;;;;;;10.97;5.10;;;9.50;99.90;;;;;;4998754;28;20814;-72
2023/03/25 05:06:47;;;;;;;10.07;5.30;;;9.50;99.90;;;;;;5015427;28;20933;-72
2023/03/25 05:09:17;;;;;;;10.77;5.00;;;9.50;99.90;;;;;;5016574;28;20431;-71
2023/03/25 05:11:46;;;;;;;12.70;5.27;;;9.50;99.90;;;;;;5014942;28;20567;-71
2023/03/25 05:14:16;;;;;;;8.97;5.03;;;9.40;99.90;;;;;;5016264;28;20436;-71
2023/03/25 05:16:45;;;;;;;11.00;4.70;;;9.40;99.90;;;;;;5016510;28;20440;-72
2023/03/25 05:19:17;;;;;;;9.23;4.80;;;9.40;99.90;;;;;;5016159;28;20472;-72
2023/03/25 05:21:47;;;;;;;12.57;5.60;;;9.40;99.90;;;;;;5021599;28;20455;-72
2023/03/25 05:24:15;;;;;;;8.43;4.30;;;9.50;99.90;;;;;;5022964;28;20452;-72
2023/03/25 05:26:43;;;;;;;8.70;4.63;;;9.40;99.90;;;;;;5000458;28;20472;-72
2023/03/25 05:29:13;;;;;;;11.13;4.50;;;9.40;99.90;;;;;;5018911;28;20459;-71
2023/03/25 05:31:43;;;;;;;9.13;5.20;;;9.40;99.90;;;;;;5019173;28;20451;-71
2023/03/25 05:34:13;;;;;;;10.57;4.60;;;9.50;99.90;;;;;;4998764;28;20448;-72
2023/03/25 05:36:43;;;;;;;8.70;4.80;;;9.50;99.90;;;;;;5017189;28;20451;-71
2023/03/25 05:39:11;;;;;;;9.53;4.53;;;9.40;99.90;;;;;;5016320;28;20464;-72
2023/03/25 05:41:40;;;;;;;8.10;4.93;;;9.50;99.90;;;;;;5003652;28;21015;-72
2023/03/25 05:44:14;;;;;;;7.00;4.20;;;9.40;99.90;;;;;;5016545;28;20455;-71
2023/03/25 05:46:42;;;;;;;7.27;4.13;;;9.40;99.90;;;;;;5015747;28;20448;-71
2023/03/25 05:49:11;;;;;;;9.57;4.53;;;9.50;99.90;;;;;;5016498;28;20442;-71
2023/03/25 05:51:39;;;;;;;10.83;4.20;;;9.50;99.90;;;;;;5015909;28;20479;-72
2023/03/25 05:54:10;;;;;;;9.20;4.43;;;9.50;99.90;;;;;;4998012;28;20865;-72
2023/03/25 05:56:40;;;;;;;10.13;5.17;;;9.50;99.90;;;;;;5015534;28;20419;-72
2023/03/25 05:59:09;;;;;;;9.13;3.90;;;9.50;99.90;;;;;;5015444;28;20475;-72
2023/03/25 06:01:37;;;;;;;15.23;5.00;;;9.50;99.90;;;;;;5014234;28;20827;-72
2023/03/25 06:04:08;;;;;;;7.37;3.80;;;9.50;99.90;;;;;;5013234;28;20448;-72
2023/03/25 06:06:38;;;;;;;10.50;3.90;;;9.50;99.90;;;;;;5014053;28;20494;-72
2023/03/25 06:09:09;;;;;;;7.70;3.73;;;9.50;99.90;;;;;;5015260;28;20448;-71
2023/03/25 06:11:37;;;;;;;8.97;4.10;;;9.50;99.90;;;;;;5015254;28;20452;-71
2023/03/25 06:14:06;;;;;;;6.70;3.60;;;9.50;99.90;;;;;;5015208;28;20448;-71
2023/03/25 06:16:34;;;;;;;6.20;3.63;;;9.50;99.90;;;;;;5015316;28;20439;-71
2023/03/25 06:19:03;;;;;;;7.97;3.80;;;9.50;99.90;;;;;;4997388;28;20566;-71
2023/03/25 06:21:34;;;;;;;7.13;3.80;;;9.50;99.90;;;;;;4997429;28;20476;-71
2023/03/25 06:24:03;;;;;;;8.37;4.17;;;9.50;99.90;;;;;;5015317;28;20440;-72
2023/03/25 06:26:32;;;;;;;7.93;4.30;;;9.60;99.90;;;;;;5013631;28;20451;-71
2023/03/25 06:29:01;;;;;;;4.87;3.90;;;9.60;99.90;;;;;;4997273;28;20444;-71
2023/03/25 06:31:32;;;;;;;7.40;3.43;;;9.60;99.90;;;;;;5015012;28;20502;-71
2023/03/25 06:34:01;;;;;;;7.00;3.70;;;9.60;99.90;;;;;;4996985;28;20483;-71
2023/03/25 06:36:30;;;;;;;6.10;3.77;;;9.60;99.90;;;;;;5015003;28;20420;-71
2023/03/25 06:38:58;;;;;;;5.97;3.70;;;9.70;99.90;;;;;;5014602;28;20467;-71
2023/03/25 06:41:27;;;;;;;6.20;3.60;;;9.70;99.90;;;;;;5013291;28;20502;-71
2023/03/25 06:44:12;;;;;;;8.97;3.90;;;9.70;99.90;;;;;;4996993;28;20444;-71
2023/03/25 06:46:46;;;;;;;8.00;3.77;;;9.70;99.90;;;;;;5014833;28;20420;-71
2023/03/25 06:49:17;;;;;;;9.40;3.67;;;9.80;99.90;;;;;;5013325;28;20464;-71
2023/03/25 06:51:46;;;;;;;5.60;3.20;;;9.80;99.90;;;;;;5013163;28;20475;-71
2023/03/25 06:54:14;;;;;;;6.77;3.80;;;9.80;99.90;;;;;;5013127;28;20451;-71
2023/03/25 06:56:42;;;;;;;6.83;3.27;;;9.80;99.90;;;;;;5014284;28;20451;-71
2023/03/25 06:59:11;;;;;;;7.93;3.50;;;9.80;99.90;;;;;;5014220;28;20476;-71
2023/03/25 07:01:40;;;;;;;9.03;3.93;;;9.90;99.90;;;;;;5014181;28;20456;-71
2023/03/25 07:04:08;;;;;;;9.63;3.90;;;9.90;99.90;;;;;;4996584;28;20488;-71
2023/03/25 07:06:36;;;;;;;6.60;3.57;;;9.90;99.90;;;;;;4996573;28;20444;-71
2023/03/25 07:09:04;;;;;;;7.60;3.50;;;10.00;99.90;;;;;;5012855;28;20971;-71
2023/03/25 07:11:33;;;;;;;7.47;3.73;;;10.00;99.90;;;;;;5012760;28;20459;-71
2023/03/25 07:14:01;;;;;;;8.00;3.83;;;10.00;99.90;;;;;;5014237;28;20448;-71
2023/03/25 07:16:31;;;;;;;5.83;3.03;;;10.00;99.90;;;;;;5012617;28;20480;-71
2023/03/25 07:19:00;;;;;;;9.03;3.60;;;10.10;99.90;;;;;;5013823;28;20448;-71
2023/03/25 07:21:28;;;;;;;8.10;3.60;;;10.10;99.90;;;;;;5013917;28;20455;-71
2023/03/25 07:23:56;;;;;;;7.07;3.50;;;10.00;99.90;;;;;;5013910;28;20440;-71
2023/03/25 07:26:24;;;;;;;5.50;3.60;;;10.10;99.90;;;;;;4996238;28;20448;-71
2023/03/25 07:28:52;;;;;;;9.53;3.63;;;10.10;99.90;;;;;;4996181;28;20468;-71
2023/03/25 07:31:20;;;;;;;7.17;3.60;;;10.10;99.90;;;;;;5013765;28;20543;-71
2023/03/25 07:33:50;;;;;;;7.30;3.60;;;10.10;99.90;;;;;;5013777;28;20452;-71
2023/03/25 07:36:20;;;;;;;8.03;3.63;;;10.10;99.90;;;;;;5013673;28;20440;-71
2023/03/25 07:38:49;;;;;;;7.87;3.50;;;10.10;99.90;;;;;;5013975;28;20495;-71
2023/03/25 07:41:17;;;;;;;9.97;3.83;;;10.10;99.90;;;;;;5013762;28;20820;-71
2023/03/25 07:44:03;;;;;;;6.30;3.43;;;10.10;99.90;;;;;;5012630;28;20440;-72
2023/03/25 07:46:32;;;;;;;9.73;4.00;;;10.10;99.90;;;;;;5012341;28;20474;-72
2023/03/25 07:49:01;;;;;;;7.20;3.50;;;10.10;99.90;;;;;;5013507;28;20482;-72
2023/03/25 07:51:31;;;;;;;6.20;3.30;;;10.10;99.90;;;;;;5012144;28;20565;-72
2023/03/25 07:54:00;;;;;;;5.97;2.67;;;10.10;99.90;;;;;;4995951;28;20448;-72
2023/03/25 07:56:32;;;;;;;4.90;2.20;;;10.00;99.90;;;;;;4996780;28;20444;-72
2023/03/25 07:59:01;;;;;;;5.30;1.93;;;10.00;99.90;;;;;;5012199;28;21015;-73
2023/03/25 08:01:29;;;;;;;5.17;1.63;;;9.90;99.90;;;;;;5013308;28;20568;-72
2023/03/25 08:03:57;;;;;;;5.80;2.37;;;9.80;99.90;;;;;;4995802;28;20450;-72
2023/03/25 08:06:27;;;;;;;6.13;1.70;;;9.70;99.90;;;;;;4995857;28;20448;-72
2023/03/25 08:08:55;;;;;;;4.23;1.43;;;9.60;99.90;;;;;;5013480;28;20432;-72
2023/03/25 08:11:23;;;;;;;4.20;1.70;;;9.50;99.90;;;;;;5013971;28;20991;-72
2023/03/25 08:13:51;;;;;;;5.30;2.00;;;9.50;99.90;;;;;;5013582;28;20471;-72
2023/03/25 08:16:19;;;;;;;5.10;1.97;;;9.40;99.90;;;;;;5013272;28;20447;-72
2023/03/25 08:18:51;;;;;;;5.10;1.70;;;9.40;99.90;;;;;;4995725;28;20530;-72
2023/03/25 08:21:23;;;;;;;5.17;1.73;;;9.40;99.90;;;;;;5013354;28;20479;-72
2023/03/25 08:24:00;;;;;;;4.60;1.57;;;9.40;99.90;;;;;;5013277;28;20416;-72
2023/03/25 08:26:29;;;;;;;6.80;2.17;;;9.30;99.90;;;;;;4995998;28;20451;-72
2023/03/25 08:28:58;;;;;;;4.00;1.60;;;9.30;99.90;;;;;;5016728;28;20438;-72
2023/03/25 08:31:29;;;;;;;4.07;1.67;;;9.30;99.90;;;;;;4999425;28;20467;-72
2023/03/25 08:33:58;;;;;;;4.10;1.40;;;9.30;99.90;;;;;;5017186;28;20905;-73
2023/03/25 08:36:26;;;;;;;5.13;2.27;;;9.30;99.90;;;;;;5017053;28;20523;-72
2023/03/25 08:38:56;;;;;;;4.20;1.60;;;9.30;99.90;;;;;;5017191;28;20439;-72
2023/03/25 08:41:25;;;;;;;5.33;1.63;;;9.50;99.90;;;;;;5015432;28;20491;-72
2023/03/25 08:43:53;;;;;;;7.57;1.63;;;9.70;99.90;;;;;;5016775;28;20444;-72
2023/03/25 08:46:21;;;;;;;6.83;1.80;;;9.90;99.90;;;;;;5016775;28;20448;-72
2023/03/25 08:48:50;;;;;;;4.70;1.80;;;10.10;99.90;;;;;;5017213;28;20447;-73
2023/03/25 08:51:18;;;;;;;5.07;1.53;;;10.20;99.90;;;;;;5015339;28;20463;-72
2023/03/25 08:53:46;;;;;;;5.47;1.90;;;10.40;99.90;;;;;;4999049;28;20535;-72
2023/03/25 08:56:16;;;;;;;5.10;1.70;;;10.60;99.90;;;;;;4998941;28;21034;-72
2023/03/25 08:58:44;;;;;;;4.63;1.73;;;10.60;99.90;;;;;;4998898;28;20447;-72
2023/03/25 09:01:12;;;;;;;5.03;1.50;;;10.80;99.90;;;;;;5016353;28;21011;-73
2023/03/25 09:03:41;;;;;;;5.70;1.60;;;10.90;99.90;;;;;;4998926;28;20450;-72
2023/03/25 09:06:10;;;;;;;5.57;1.87;;;10.90;99.90;;;;;;5016671;28;20448;-72
2023/03/25 09:08:38;;;;;;;5.47;1.77;;;11.00;99.90;;;;;;5018686;28;20534;-73
2023/03/25 09:11:07;;;;;;;5.57;1.97;;;11.00;99.90;;;;;;5017722;28;20456;-73
2023/03/25 09:13:36;;;;;;;5.50;1.97;;;10.90;99.90;;;;;;4998703;28;20534;-72
2023/03/25 09:16:05;;;;;;;7.00;2.50;;;10.90;99.90;;;;;;5016320;28;20860;-72
2023/03/25 09:18:35;;;;;;;7.63;3.10;;;10.80;99.90;;;;;;5016157;28;20443;-72
2023/03/25 09:21:04;;;;;;;5.83;2.80;;;10.80;99.90;;;;;;5016022;28;20570;-72
2023/03/25 09:23:32;;;;;;;6.23;2.87;;;10.80;99.90;;;;;;5016141;28;20440;-72
2023/03/25 09:26:02;;;;;;;6.40;3.10;;;10.70;99.90;;;;;;5016025;28;20440;-72
2023/03/25 09:28:30;;;;;;;12.93;3.73;;;10.70;99.90;;;;;;4998582;28;20471;-72
2023/03/25 09:31:00;;;;;;;7.70;3.23;;;10.70;99.90;;;;;;5015882;28;20527;-72
2023/03/25 09:33:28;;;;;;;6.40;3.40;;;10.60;99.90;;;;;;5015901;28;20436;-72
2023/03/25 09:35:56;;;;;;;7.73;3.93;;;10.60;99.90;;;;;;4998171;28;20467;-73
2023/03/25 09:38:24;;;;;;;7.70;3.93;;;10.50;99.90;;;;;;4998200;28;20451;-73
2023/03/25 09:40:53;;;;;;;7.70;3.80;;;10.60;99.90;;;;;;5015753;28;20525;-73
2023/03/25 09:43:31;;;;;;;8.37;3.43;;;10.60;99.90;;;;;;5016086;28;20527;-73
2023/03/25 09:46:01;;;;;;;8.80;3.70;;;10.60;99.90;;;;;;5015765;28;20432;-73
2023/03/25 09:48:34;;;;;;;7.97;3.70;;;10.60;99.90;;;;;;5015684;28;20463;-73
2023/03/25 09:51:05;;;;;;;8.50;3.70;;;10.60;99.90;;;;;;5015512;28;20456;-72
2023/03/25 09:53:39;;;;;;;8.60;4.10;;;10.60;99.90;;;;;;5015499;28;20432;-73
2023/03/25 09:56:15;;;;;;;9.67;3.80;;;10.60;99.90;;;;;;5015489;28;20428;-73
2023/03/25 09:58:45;;;;;;;9.47;4.00;;;10.60;99.90;;;;;;5014266;28;20436;-73
2023/03/25 10:01:23;;;;;;;5.70;3.30;;;10.60;99.90;;;;;;5015225;28;20482;-73
2023/03/25 10:04:23;;;;;;;8.40;4.00;;;10.60;99.90;;;;;;5015351;28;20761;-72
2023/03/25 10:06:57;;;;;;;8.60;3.67;;;10.60;99.90;;;;;;4971484;28;20455;-72
2023/03/25 10:09:39;;;;;;;11.53;3.90;;;10.60;99.90;;;;;;5015415;28;20423;-72
2023/03/25 10:12:21;;;;;;;7.50;3.83;;;10.60;99.90;;;;;;4997650;28;20464;-72
2023/03/25 10:14:58;;;;;;;10.87;4.03;;;10.50;99.90;;;;;;5013895;28;20448;-72
2023/03/25 10:17:37;;;;;;;9.30;4.47;;;10.40;99.90;;;;;;5015312;28;20415;-72
2023/03/25 10:20:16;;;;;;;9.03;3.90;;;10.40;99.90;;;;;;5015158;28;20431;-73
2023/03/25 10:22:59;;;;;;;7.27;3.80;;;10.30;99.90;;;;;;5015109;28;20948;-73
2023/03/25 10:25:32;;;;;;;8.03;4.37;;;10.30;99.90;;;;;;5014875;28;20784;-73
2023/03/25 10:28:02;;;;;;;7.90;4.97;;;10.30;99.90;;;;;;5013667;28;20444;-74
2023/03/25 10:30:34;;;;;;;11.87;5.33;;;10.30;99.90;;;;;;5014748;28;20460;-74
2023/03/25 10:33:09;;;;;;;9.67;6.03;;;10.30;99.90;;;;;;5015007;28;20936;-74
2023/03/25 10:35:40;;;;;;;9.97;5.80;;;10.40;99.90;;;;;;5014834;28;20465;-73
2023/03/25 10:38:17;;;;;;;11.83;4.83;;;10.40;99.90;;;;;;5014573;28;20448;-74
2023/03/25 10:40:48;;;;;;;8.50;4.50;;;10.40;99.90;;;;;;5013565;28;20809;-74
2023/03/25 10:43:25;;;;;;;8.60;4.53;;;10.50;99.90;;;;;;4996957;28;20858;-74
2023/03/25 10:45:58;;;;;;;8.40;4.40;;;10.40;99.90;;;;;;5014916;28;20428;-74
2023/03/25 10:48:28;;;;;;;7.87;4.30;;;10.30;99.90;;;;;;5013241;28;20527;-74
2023/03/25 10:51:03;;;;;;;7.90;4.20;;;10.40;99.90;;;;;;5014387;28;20456;-74
2023/03/25 10:53:31;;;;;;;11.57;4.60;;;10.40;99.90;;;;;;4996837;28;20440;-74
2023/03/25 10:56:03;;;;;;;10.97;4.50;;;10.50;99.90;;;;;;5014216;28;20455;-74
2023/03/25 10:58:34;;;;;;;8.40;4.13;;;10.60;99.90;;;;;;5013043;28;20436;-74
2023/03/25 11:01:10;;;;;;;8.47;4.33;;;10.70;99.90;;;;;;5013035;28;20476;-74
2023/03/25 11:03:41;;;;;;;9.53;3.93;;;10.70;99.90;;;;;;5015315;28;20502;-74
2023/03/25 11:06:23;;;;;;;7.07;4.00;;;10.80;99.90;;;;;;5014876;28;20428;-74
2023/03/25 11:09:17;;;;;;;7.73;3.27;;;10.80;99.90;;;;;;5014759;28;20439;-74
2023/03/25 11:11:46;;;;;;;9.80;3.90;;;10.90;99.90;;;;;;5011018;28;20468;-74
2023/03/25 11:14:14;;;;;;;10.77;3.73;;;10.90;99.90;;;;;;4996572;28;20820;-74
2023/03/25 11:16:46;;;;;;;7.80;3.67;;;10.80;99.90;;;;;;4996483;28;20451;-74
2023/03/25 11:19:20;;;;;;;8.37;3.97;;;10.80;99.90;;;;;;5014083;28;20424;-74
2023/03/25 11:21:54;;;;;;;6.23;3.27;;;10.80;99.90;;;;;;4997514;28;20483;-73
2023/03/25 11:24:27;;;;;;;7.07;3.53;;;10.80;99.90;;;;;;4996825;28;20878;-73
2023/03/25 11:26:56;;;;;;;7.23;3.70;;;10.70;99.90;;;;;;5014518;28;20425;-74
2023/03/25 11:29:27;;;;;;;8.40;3.90;;;10.70;99.90;;;;;;5014255;28;20466;-74
2023/03/25 11:31:58;;;;;;;7.73;3.47;;;10.70;99.90;;;;;;5014210;28;20455;-74
2023/03/25 11:34:29;;;;;;;7.20;4.03;;;10.80;99.90;;;;;;5014406;28;20991;-74
2023/03/25 11:37:03;;;;;;;7.70;3.60;;;10.80;99.90;;;;;;5014137;28;20824;-74
2023/03/25 11:39:35;;;;;;;10.93;4.30;;;10.80;99.90;;;;;;5014001;28;20432;-74
2023/03/25 11:42:15;;;;;;;5.77;2.87;;;10.90;99.90;;;;;;5013595;28;20529;-74
2023/03/25 11:44:49;;;;;;;6.33;2.87;;;11.00;99.90;;;;;;5013907;28;20474;-73
2023/03/25 11:47:22;;;;;;;6.10;2.27;;;11.10;99.90;;;;;;5013808;28;20438;-73
2023/03/25 11:49:53;;;;;;;6.27;2.70;;;11.20;99.90;;;;;;5013822;28;20823;-74
2023/03/25 11:52:24;;;;;;;6.00;2.40;;;11.30;99.90;;;;;;5013516;28;20424;-73
2023/03/25 11:54:53;;;;;;;5.57;2.07;;;11.40;99.90;;;;;;5013588;28;20499;-74
2023/03/25 11:57:26;;;;;;;7.17;2.60;;;11.50;99.90;;;;;;5013410;28;20937;-74
2023/03/25 12:00:09;;;;;;;4.83;2.20;;;11.60;99.90;;;;;;5013681;28;20416;-74
2023/03/25 12:02:40;;;;;;;5.77;2.40;;;11.70;99.90;;;;;;5014870;28;20467;-73
2023/03/25 12:05:14;;;;;;;6.33;2.43;;;11.60;99.90;;;;;;5018049;28;20507;-74
2023/03/25 12:07:43;;;;;;;7.93;2.53;;;11.70;99.90;;;;;;5016256;28;20435;-74
2023/03/25 12:10:17;;;;;;;5.03;2.43;;;11.70;99.90;;;;;;5017281;28;20582;-74
2023/03/25 12:12:54;;;;;;;7.23;2.30;;;11.70;99.90;;;;;;5017442;28;20897;-73
2023/03/25 12:15:37;;;;;;;6.23;2.60;;;11.70;99.90;;;;;;5018090;28;20426;-74
2023/03/25 12:18:37;;;;;;;5.03;2.50;;;11.70;99.90;;;;;;5015954;28;20444;-74
2023/03/25 12:21:15;;;;;;;5.80;2.33;;;11.60;99.90;;;;;;5017137;28;20542;-74
2023/03/25 12:23:53;;;;;;;6.93;2.33;;;11.50;99.90;;;;;;5015903;28;20478;-73
2023/03/25 12:26:28;;;;;;;4.57;1.80;;;11.50;99.90;;;;;;5017282;28;20423;-73
2023/03/25 12:29:22;;;;;;;6.07;2.20;;;11.40;99.90;;;;;;5016033;28;20490;-74
2023/03/25 12:32:03;;;;;;;8.40;2.87;;;11.30;99.90;;;;;;5017078;28;20451;-74
2023/03/25 12:34:48;;;;;;;9.27;2.60;;;11.30;99.90;;;;;;4999231;28;20459;-74
2023/03/25 12:37:27;;;;;;;7.67;2.50;;;11.20;99.90;;;;;;5015874;28;20447;-74
2023/03/25 12:40:11;;;;;;;5.17;2.30;;;11.20;99.90;;;;;;4999168;28;20890;-74
2023/03/25 12:42:47;;;;;;;5.23;1.93;;;11.10;99.90;;;;;;5016982;28;20952;-74
2023/03/25 12:45:26;;;;;;;5.87;1.63;;;11.10;99.90;;;;;;5015564;28;20440;-74
2023/03/25 12:47:57;;;;;;;6.03;1.60;;;11.10;99.90;;;;;;5016978;28;20466;-74
2023/03/25 12:50:45;;;;;;;3.90;1.20;;;11.10;99.90;;;;;;5016550;28;20479;-74
2023/03/25 12:53:28;;;;;;;5.27;1.40;;;11.20;99.90;;;;;;5016656;28;20952;-74
2023/03/25 12:56:07;;;;;;;4.70;1.83;;;11.30;99.90;;;;;;5015290;28;20952;-74
2023/03/25 12:58:56;;;;;;;3.50;1.30;;;11.30;99.90;;;;;;5016560;28;20427;-74
2023/03/25 13:01:32;;;;;;;4.67;1.50;;;11.30;99.90;;;;;;5016561;28;20459;-74
2023/03/25 13:04:27;;;;;;;4.20;1.40;;;11.30;99.90;;;;;;5015144;28;20492;-74
2023/03/25 13:07:00;;;;;;;7.17;1.70;;;11.30;99.90;;;;;;5016429;28;20424;-74
2023/03/25 13:09:34;;;;;;;4.33;1.60;;;11.20;99.90;;;;;;4998765;28;20454;-74
2023/03/25 13:12:08;;;;;;;5.80;1.70;;;11.20;99.90;;;;;;5016185;28;20459;-74
2023/03/25 13:14:41;;;;;;;6.00;1.40;;;11.20;99.90;;;;;;5015756;28;20459;-74
2023/03/25 13:17:16;;;;;;;6.03;1.50;;;11.10;99.90;;;;;;5016472;28;20420;-74